Time,TemperatureF,DewpointF,PressureIn,WindDirection,WindDirectionDegrees,WindSpeedMPH,WindSpeedGustMPH,Humidity,HourlyPrecipIn,Conditions,Clouds,dailyrainin,SoftwareType,DateUTC
2013-07-02 00:01:00,74.0,72.5,29.96,SE,137,3.0,4.0,95,0.00,,FEW025,0.00,VWS V14.01,2013-07-02 04:01:00,
2013-07-02 00:02:00,74.0,72.5,29.96,SSE,148,2.0,5.0,95,0.00,,FEW025,0.00,VWS V14.01,2013-07-02 04:02:00,
2013-07-02 00:07:00,74.0,72.5,29.96,SE,132,3.0,6.0,95,0.00,,BKN040,0.00,VWS V14.01,2013-07-02 04:07:00,
2013-07-02 00:12:00,74.0,72.5,29.96,SSE,153,3.0,4.0,95,0.00,,BKN040,0.00,VWS V14.01,2013-07-02 04:12:00,
2013-07-02 00:17:00,74.0,72.5,29.96,SSE,167,1.0,3.0,95,0.00,,BKN040,0.00,VWS V14.01,2013-07-02 04:17:00,
2013-07-02 00:22:00,74.0,72.5,29.96,SE,137,2.0,4.0,95,0.00,,BKN040,0.00,VWS V14.01,2013-07-02 04:22:00,
2013-07-02 00:27:00,73.9,72.4,29.96,SSE,148,3.0,4.0,95,0.00,,BKN040,0.00,VWS V14.01,2013-07-02 04:27:00,
2013-07-02 00:32:00,73.9,72.7,29.96,SE,127,2.0,5.0,96,0.00,,BKN040,0.00,VWS V14.01,2013-07-02 04:32:00,
2013-07-02 00:37:00,73.9,72.7,29.96,SE,131,6.0,7.0,96,0.00,,BKN040,0.00,VWS V14.01,2013-07-02 04:37:00,
2013-07-02 00:42:00,74.0,72.8,29.96,SSE,160,3.0,4.0,96,0.00,,BKN040,0.00,VWS V14.01,2013-07-02 04:42:00,
2013-07-02 00:47:00,74.1,72.6,29.96,SSW,205,1.0,5.0,95,0.00,,BKN040,0.00,VWS V14.01,2013-07-02 04:47:00,
2013-07-02 00:53:00,74.0,72.5,29.96,South,174,2.0,2.0,95,0.00,,BKN040,0.00,VWS V14.01,2013-07-02 04:53:00,
2013-07-02 00:57:00,74.0,72.5,29.96,South,169,1.0,3.0,95,0.00,,BKN040,0.00,VWS V14.01,2013-07-02 04:57:00,
2013-07-02 01:02:00,74.0,72.8,29.96,SSE,165,0.0,2.0,96,0.00,,OVC037,0.00,VWS V14.01,2013-07-02 05:02:00,
2013-07-02 01:08:00,74.0,72.8,29.96,SSE,148,1.0,3.0,96,0.00,,OVC037,0.00,VWS V14.01,2013-07-02 05:08:00,
2013-07-02 01:13:00,74.0,72.8,29.96,SSW,212,2.0,6.0,96,0.00,,OVC037,0.00,VWS V14.01,2013-07-02 05:13:00,
2013-07-02 01:18:00,74.0,72.8,29.96,SSE,166,4.0,5.0,96,0.00,,OVC037,0.00,VWS V14.01,2013-07-02 05:18:00,
2013-07-02 01:23:00,74.0,72.8,29.96,SSE,166,3.0,5.0,96,0.00,,OVC037,0.00,VWS V14.01,2013-07-02 05:23:00,
2013-07-02 01:28:00,74.0,72.8,29.96,SE,133,2.0,4.0,96,0.00,,OVC037,0.00,VWS V14.01,2013-07-02 05:28:00,
2013-07-02 01:33:00,74.0,72.8,29.96,SSE,167,4.0,5.0,96,0.00,,OVC037,0.00,VWS V14.01,2013-07-02 05:33:00,
2013-07-02 01:38:00,74.0,72.8,29.96,SSE,166,4.0,6.0,96,0.00,,OVC037,0.00,VWS V14.01,2013-07-02 05:38:00,
2013-07-02 01:43:00,74.0,72.8,29.96,SE,141,3.0,6.0,96,0.00,,OVC037,0.00,VWS V14.01,2013-07-02 05:43:00,
2013-07-02 01:48:00,74.0,72.8,29.96,SSE,150,4.0,7.0,96,0.00,,OVC037,0.00,VWS V14.01,2013-07-02 05:48:00,
2013-07-02 01:53:00,74.0,72.8,29.96,SSE,152,8.0,9.0,96,0.00,,OVC037,0.00,VWS V14.01,2013-07-02 05:53:00,
2013-07-02 01:58:00,74.0,72.8,29.97,SSE,157,5.0,8.0,96,0.00,,OVC037,0.00,VWS V14.01,2013-07-02 05:58:00,
2013-07-02 02:03:00,74.0,72.5,29.97,SE,145,6.0,8.0,95,0.00,,OVC020,0.00,VWS V14.01,2013-07-02 06:03:00,
2013-07-02 02:08:00,74.0,72.8,29.97,SSE,160,3.0,6.0,96,0.00,,OVC020,0.00,VWS V14.01,2013-07-02 06:08:00,
2013-07-02 02:13:00,74.0,72.8,29.97,South,188,3.0,5.0,96,0.00,,OVC020,0.00,VWS V14.01,2013-07-02 06:13:00,
2013-07-02 02:18:00,74.0,72.8,29.97,SE,143,4.0,7.0,96,0.00,,OVC020,0.00,VWS V14.01,2013-07-02 06:18:00,
2013-07-02 02:23:00,74.0,72.8,29.97,SSE,150,2.0,6.0,96,0.00,,OVC020,0.00,VWS V14.01,2013-07-02 06:23:00,
2013-07-02 02:28:00,74.0,72.8,29.97,SSE,153,3.0,6.0,96,0.00,,OVC020,0.00,VWS V14.01,2013-07-02 06:28:00,
2013-07-02 02:33:00,73.9,72.7,29.97,SSE,164,4.0,7.0,96,0.00,,OVC020,0.00,VWS V14.01,2013-07-02 06:33:00,
2013-07-02 02:38:00,73.9,72.7,29.96,South,173,5.0,7.0,96,0.00,,OVC020,0.00,VWS V14.01,2013-07-02 06:38:00,
2013-07-02 02:44:00,73.8,72.6,29.96,ESE,110,6.0,7.0,96,0.00,,OVC020,0.00,VWS V14.01,2013-07-02 06:44:00,
2013-07-02 02:49:00,73.8,72.9,29.96,ESE,103,5.0,9.0,97,0.00,,OVC020,0.00,VWS V14.01,2013-07-02 06:49:00,
2013-07-02 02:54:00,73.8,72.9,29.96,SSE,157,3.0,7.0,97,0.00,,OVC020,0.00,VWS V14.01,2013-07-02 06:54:00,
2013-07-02 02:59:00,73.7,72.8,29.96,SE,125,7.0,8.0,97,0.00,,OVC020,0.00,VWS V14.01,2013-07-02 06:59:00,
2013-07-02 03:04:00,73.7,72.8,29.96,ESE,116,6.0,8.0,97,0.00,,BKN070,0.00,VWS V14.01,2013-07-02 07:04:00,
2013-07-02 03:09:00,73.7,72.8,29.96,SSE,153,4.0,6.0,97,0.00,,BKN070,0.00,VWS V14.01,2013-07-02 07:09:00,
2013-07-02 03:14:00,73.6,72.7,29.96,SSE,164,4.0,7.0,97,0.00,,BKN070,0.00,VWS V14.01,2013-07-02 07:14:00,
2013-07-02 03:19:00,73.6,73.0,29.96,South,177,4.0,7.0,98,0.00,,BKN070,0.00,VWS V14.01,2013-07-02 07:19:00,
2013-07-02 03:24:00,73.5,72.9,29.96,SE,145,4.0,6.0,98,0.00,,BKN070,0.00,VWS V14.01,2013-07-02 07:24:00,
2013-07-02 03:29:00,73.6,73.0,29.96,SE,142,6.0,7.0,98,0.00,,BKN070,0.00,VWS V14.01,2013-07-02 07:29:00,
2013-07-02 03:34:00,73.6,73.0,29.97,SE,136,7.0,7.0,98,0.00,,BKN070,0.00,VWS V14.01,2013-07-02 07:34:00,
2013-07-02 03:39:00,73.6,73.0,29.97,SE,129,6.0,7.0,98,0.00,,BKN070,0.00,VWS V14.01,2013-07-02 07:39:00,
2013-07-02 03:44:00,73.7,73.1,29.97,SSE,148,12.0,12.0,98,0.00,,BKN070,0.00,VWS V14.01,2013-07-02 07:44:00,
2013-07-02 03:49:00,73.7,73.1,29.97,SSE,150,5.0,9.0,98,0.01,,BKN070,0.01,VWS V14.01,2013-07-02 07:49:00,
2013-07-02 03:54:00,73.7,73.1,29.97,South,179,4.0,8.0,98,0.03,,BKN070,0.03,VWS V14.01,2013-07-02 07:54:00,
2013-07-02 03:59:00,73.6,73.0,29.97,SSE,156,5.0,12.0,98,0.03,,BKN070,0.03,VWS V14.01,2013-07-02 07:59:00,
2013-07-02 04:04:00,73.5,72.9,29.97,SSE,160,5.0,8.0,98,0.03,,-RA,0.03,VWS V14.01,2013-07-02 08:04:00,
2013-07-02 04:09:00,73.5,72.9,29.97,SW,228,3.0,12.0,98,0.03,,-RA,0.03,VWS V14.01,2013-07-02 08:09:00,
2013-07-02 04:14:00,73.5,72.9,29.98,SSE,161,6.0,10.0,98,0.03,,-RA,0.03,VWS V14.01,2013-07-02 08:14:00,
2013-07-02 04:20:00,73.5,72.9,29.98,SSE,155,5.0,10.0,98,0.03,,-RA,0.03,VWS V14.01,2013-07-02 08:20:00,
2013-07-02 04:25:00,73.4,72.8,29.97,South,191,6.0,10.0,98,0.03,,-RA,0.03,VWS V14.01,2013-07-02 08:25:00,
2013-07-02 04:30:00,73.4,72.8,29.97,SE,146,4.0,9.0,98,0.03,,-RA,0.03,VWS V14.01,2013-07-02 08:30:00,
2013-07-02 04:35:00,73.3,72.7,29.98,SSW,198,3.0,7.0,98,0.03,,BKN045,0.03,VWS V14.01,2013-07-02 08:35:00,
2013-07-02 04:40:00,73.2,72.6,29.98,SE,124,3.0,6.0,98,0.03,,BKN045,0.03,VWS V14.01,2013-07-02 08:40:00,
2013-07-02 04:45:00,73.1,72.5,29.98,SSE,157,4.0,6.0,98,0.03,,BKN045,0.03,VWS V14.01,2013-07-02 08:45:00,
2013-07-02 04:50:00,73.0,72.4,29.98,SE,142,4.0,5.0,98,0.03,,BKN045,0.03,VWS V14.01,2013-07-02 08:50:00,
2013-07-02 04:55:00,73.0,72.4,29.98,SE,134,3.0,5.0,98,0.02,,BKN045,0.03,VWS V14.01,2013-07-02 08:55:00,
2013-07-02 05:00:00,72.9,72.3,29.98,SE,142,2.0,5.0,98,0.00,,BKN045,0.03,VWS V14.01,2013-07-02 09:00:00,
2013-07-02 05:05:00,72.8,72.2,29.98,SE,136,4.0,5.0,98,0.00,,SCT045,0.03,VWS V14.01,2013-07-02 09:05:00,
2013-07-02 05:10:00,72.8,72.2,29.99,SSW,201,1.0,5.0,98,0.00,,SCT045,0.03,VWS V14.01,2013-07-02 09:10:00,
2013-07-02 05:15:00,72.7,72.1,29.99,SE,138,2.0,4.0,98,0.00,,SCT045,0.03,VWS V14.01,2013-07-02 09:15:00,
2013-07-02 05:20:00,72.7,72.1,29.99,SSE,153,4.0,5.0,98,0.00,,SCT045,0.03,VWS V14.01,2013-07-02 09:20:00,
2013-07-02 05:25:00,72.7,72.1,29.99,SE,143,4.0,6.0,98,0.00,,SCT045,0.03,VWS V14.01,2013-07-02 09:25:00,
2013-07-02 05:30:00,72.7,72.1,29.99,ESE,115,6.0,6.0,98,0.00,,SCT045,0.03,VWS V14.01,2013-07-02 09:30:00,
2013-07-02 05:35:00,72.6,72.0,29.99,SSE,149,2.0,6.0,98,0.00,,SCT045,0.03,VWS V14.01,2013-07-02 09:35:00,
2013-07-02 05:40:00,72.6,72.0,29.99,SSE,155,2.0,6.0,98,0.00,,SCT045,0.03,VWS V14.01,2013-07-02 09:40:00,
2013-07-02 05:45:00,72.6,72.0,29.99,SSE,152,2.0,4.0,98,0.00,,SCT045,0.03,VWS V14.01,2013-07-02 09:45:00,
2013-07-02 05:50:00,72.6,72.0,29.99,SE,138,2.0,3.0,98,0.00,,SCT045,0.03,VWS V14.01,2013-07-02 09:50:00,
2013-07-02 05:55:00,72.5,71.9,30.00,SE,139,1.0,2.0,98,0.00,,SCT045,0.03,VWS V14.01,2013-07-02 09:55:00,
2013-07-02 06:00:00,72.5,71.9,30.00,SSE,155,0.0,1.0,98,0.00,,SCT045,0.03,VWS V14.01,2013-07-02 10:00:00,
2013-07-02 06:05:00,72.5,71.9,30.00,SSE,150,1.0,3.0,98,0.00,,BKN100,0.03,VWS V14.01,2013-07-02 10:05:00,
2013-07-02 06:10:00,72.5,71.9,30.00,SE,142,1.0,2.0,98,0.00,,BKN100,0.03,VWS V14.01,2013-07-02 10:10:00,
2013-07-02 06:15:00,72.6,72.0,30.00,SE,145,4.0,4.0,98,0.00,,BKN100,0.03,VWS V14.01,2013-07-02 10:15:00,
2013-07-02 06:20:00,72.7,72.1,30.00,SE,130,2.0,2.0,98,0.00,,BKN100,0.03,VWS V14.01,2013-07-02 10:20:00,
2013-07-02 06:25:00,72.7,72.1,30.01,SE,145,4.0,4.0,98,0.00,,BKN100,0.03,VWS V14.01,2013-07-02 10:25:00,
2013-07-02 06:30:00,72.9,72.3,30.01,SE,142,3.0,3.0,98,0.00,,BKN100,0.03,VWS V14.01,2013-07-02 10:30:00,
2013-07-02 06:35:00,73.1,72.5,30.01,SSE,166,2.0,2.0,98,0.00,,BKN100,0.03,VWS V14.01,2013-07-02 10:35:00,
2013-07-02 06:40:00,73.1,72.5,30.01,SSE,150,3.0,3.0,98,0.00,,BKN100,0.03,VWS V14.01,2013-07-02 10:40:00,
2013-07-02 06:45:00,73.1,72.5,30.01,SSE,166,4.0,4.0,98,0.00,,BKN100,0.03,VWS V14.01,2013-07-02 10:45:00,
2013-07-02 06:50:00,73.1,72.2,30.01,South,186,5.0,5.0,97,0.00,,BKN100,0.03,VWS V14.01,2013-07-02 10:50:00,
2013-07-02 06:55:00,73.2,72.3,30.01,SE,130,6.0,8.0,97,0.00,,BKN100,0.03,VWS V14.01,2013-07-02 10:55:00,
2013-07-02 07:00:00,73.4,72.5,30.01,SE,142,4.0,6.0,97,0.00,,BKN100,0.03,VWS V14.01,2013-07-02 11:00:00,
2013-07-02 07:05:00,73.6,72.7,30.02,SSE,155,5.0,7.0,97,0.00,,OVC030,0.03,VWS V14.01,2013-07-02 11:05:00,
2013-07-02 07:10:00,73.6,72.7,30.02,SE,142,6.0,6.0,97,0.00,,OVC030,0.03,VWS V14.01,2013-07-02 11:10:00,
2013-07-02 07:15:00,73.8,72.9,30.02,South,179,4.0,8.0,97,0.00,,OVC030,0.03,VWS V14.01,2013-07-02 11:15:00,
2013-07-02 07:20:00,74.1,72.9,30.02,SSE,157,7.0,7.0,96,0.00,,OVC030,0.03,VWS V14.01,2013-07-02 11:20:00,
2013-07-02 07:25:00,74.4,73.2,30.03,ESE,117,3.0,6.0,96,0.00,,OVC030,0.03,VWS V14.01,2013-07-02 11:25:00,
2013-07-02 07:31:00,74.4,73.2,30.03,SSW,203,3.0,3.0,96,0.00,,OVC030,0.03,VWS V14.01,2013-07-02 11:31:00,
2013-07-02 07:36:00,74.4,73.2,30.02,SE,142,5.0,7.0,96,0.00,,OVC028,0.03,VWS V14.01,2013-07-02 11:36:00,
2013-07-02 07:41:00,74.4,73.2,30.03,ESE,113,5.0,5.0,96,0.00,,OVC028,0.03,VWS V14.01,2013-07-02 11:41:00,
2013-07-02 07:46:00,74.4,73.2,30.03,SSE,149,5.0,5.0,96,0.00,,OVC028,0.03,VWS V14.01,2013-07-02 11:46:00,
2013-07-02 07:51:00,74.3,73.1,30.03,SSE,150,7.0,8.0,96,0.00,,OVC028,0.03,VWS V14.01,2013-07-02 11:51:00,
2013-07-02 07:56:00,74.2,73.0,30.03,SW,236,2.0,6.0,96,0.00,,OVC028,0.03,VWS V14.01,2013-07-02 11:56:00,
2013-07-02 08:01:00,74.2,73.0,30.03,SE,134,3.0,6.0,96,0.00,,OVC028,0.03,VWS V14.01,2013-07-02 12:01:00,
2013-07-02 08:06:00,74.1,72.9,30.03,SSE,152,4.0,7.0,96,0.00,,BKN110,0.03,VWS V14.01,2013-07-02 12:06:00,
2013-07-02 08:11:00,74.1,72.9,30.03,SE,139,1.0,4.0,96,0.00,,BKN110,0.03,VWS V14.01,2013-07-02 12:11:00,
2013-07-02 08:16:00,74.1,72.9,30.03,SSE,148,3.0,6.0,96,0.00,,BKN110,0.03,VWS V14.01,2013-07-02 12:16:00,
2013-07-02 08:21:00,74.3,73.1,30.03,SSE,152,5.0,6.0,96,0.00,,BKN110,0.03,VWS V14.01,2013-07-02 12:21:00,
2013-07-02 08:26:00,74.4,73.2,30.04,SE,141,6.0,6.0,96,0.00,,BKN110,0.03,VWS V14.01,2013-07-02 12:26:00,
2013-07-02 08:31:00,74.3,73.1,30.04,SSE,148,3.0,8.0,96,0.00,,BKN110,0.03,VWS V14.01,2013-07-02 12:31:00,
2013-07-02 08:36:00,74.4,73.2,30.04,SE,132,8.0,9.0,96,0.00,,BKN110,0.03,VWS V14.01,2013-07-02 12:36:00,
2013-07-02 08:41:00,74.4,72.9,30.04,ESE,120,5.0,7.0,95,0.00,,BKN110,0.03,VWS V14.01,2013-07-02 12:41:00,
2013-07-02 08:46:00,74.5,73.0,30.04,SSE,158,4.0,6.0,95,0.00,,BKN110,0.03,VWS V14.01,2013-07-02 12:46:00,
2013-07-02 08:51:00,74.6,73.1,30.04,SE,143,1.0,3.0,95,0.00,,BKN110,0.03,VWS V14.01,2013-07-02 12:51:00,
2013-07-02 08:56:00,74.7,73.2,30.04,SE,145,1.0,6.0,95,0.00,,BKN110,0.03,VWS V14.01,2013-07-02 12:56:00,
2013-07-02 09:01:00,74.8,73.3,30.04,SE,142,2.0,6.0,95,0.00,,BKN110,0.03,VWS V14.01,2013-07-02 13:01:00,
2013-07-02 09:06:00,75.0,73.5,30.04,SE,139,1.0,8.0,95,0.00,,BKN110,0.03,VWS V14.01,2013-07-02 13:06:00,
2013-07-02 09:11:00,75.1,73.6,30.04,SE,130,6.0,6.0,95,0.00,,BKN110,0.03,VWS V14.01,2013-07-02 13:11:00,
2013-07-02 09:16:00,75.2,73.4,30.04,SE,143,4.0,9.0,94,0.00,,BKN110,0.03,VWS V14.01,2013-07-02 13:16:00,
2013-07-02 09:21:00,75.3,73.5,30.04,SE,133,4.0,7.0,94,0.00,,BKN110,0.03,VWS V14.01,2013-07-02 13:21:00,
2013-07-02 09:26:00,75.6,73.8,30.04,SE,127,0.0,2.0,94,0.00,,BKN110,0.03,VWS V14.01,2013-07-02 13:26:00,
2013-07-02 09:31:00,75.7,73.5,30.04,SE,130,3.0,6.0,93,0.00,,BKN110,0.03,VWS V14.01,2013-07-02 13:31:00,
2013-07-02 09:37:00,75.7,73.5,30.04,South,177,3.0,4.0,93,0.00,,FEW033,0.03,VWS V14.01,2013-07-02 13:37:00,
2013-07-02 09:42:00,75.9,73.7,30.04,SSE,148,1.0,6.0,93,0.00,,FEW033,0.03,VWS V14.01,2013-07-02 13:42:00,
2013-07-02 09:47:00,75.9,73.4,30.04,SE,143,6.0,7.0,92,0.00,,FEW033,0.03,VWS V14.01,2013-07-02 13:47:00,
2013-07-02 09:52:00,76.1,73.6,30.05,SSE,150,4.0,5.0,92,0.00,,FEW033,0.03,VWS V14.01,2013-07-02 13:52:00,
2013-07-02 09:57:00,76.1,73.6,30.05,WSW,240,6.0,7.0,92,0.00,,FEW033,0.03,VWS V14.01,2013-07-02 13:57:00,
2013-07-02 10:02:00,76.0,73.5,30.05,SSE,153,7.0,10.0,92,0.00,,FEW033,0.03,VWS V14.01,2013-07-02 14:02:00,
2013-07-02 10:07:00,75.9,73.1,30.05,South,169,1.0,8.0,91,0.00,,FEW033,0.03,VWS V14.01,2013-07-02 14:07:00,
2013-07-02 10:12:00,76.1,73.3,30.05,South,179,7.0,8.0,91,0.00,,FEW033,0.03,VWS V14.01,2013-07-02 14:12:00,
2013-07-02 10:17:00,76.3,73.5,30.04,SE,146,2.0,7.0,91,0.00,,FEW033,0.03,VWS V14.01,2013-07-02 14:17:00,
2013-07-02 10:22:00,76.4,73.2,30.05,SSW,211,2.0,10.0,90,0.00,,FEW033,0.03,VWS V14.01,2013-07-02 14:22:00,
2013-07-02 10:27:00,76.5,73.7,30.05,SE,139,8.0,8.0,91,0.00,,FEW033,0.03,VWS V14.01,2013-07-02 14:27:00,
2013-07-02 10:32:00,76.2,73.4,30.05,South,169,6.0,7.0,91,0.00,,FEW033,0.03,VWS V14.01,2013-07-02 14:32:00,
2013-07-02 10:37:00,76.3,73.5,30.05,SSE,150,5.0,6.0,91,0.00,,BKN034,0.03,VWS V14.01,2013-07-02 14:37:00,
2013-07-02 10:42:00,76.3,73.5,30.05,SE,143,4.0,7.0,91,0.00,,BKN034,0.03,VWS V14.01,2013-07-02 14:42:00,
2013-07-02 10:47:00,76.3,73.5,30.05,SW,225,4.0,11.0,91,0.00,,BKN034,0.03,VWS V14.01,2013-07-02 14:47:00,
2013-07-02 10:52:00,76.3,73.2,30.05,South,174,3.0,8.0,90,0.00,,BKN034,0.03,VWS V14.01,2013-07-02 14:52:00,
2013-07-02 10:57:00,76.6,73.1,30.06,WSW,249,5.0,10.0,89,0.00,,BKN034,0.03,VWS V14.01,2013-07-02 14:57:00,
2013-07-02 11:02:00,76.6,73.1,30.06,SSE,152,3.0,6.0,89,0.00,,BKN120,0.03,VWS V14.01,2013-07-02 15:02:00,
2013-07-02 11:07:00,76.9,73.8,30.06,SW,221,2.0,6.0,90,0.00,,BKN120,0.03,VWS V14.01,2013-07-02 15:07:00,
2013-07-02 11:12:00,77.2,73.4,30.06,South,187,1.0,6.0,88,0.00,,BKN120,0.03,VWS V14.01,2013-07-02 15:12:00,
2013-07-02 11:17:00,77.2,73.7,30.06,South,176,7.0,9.0,89,0.00,,BKN120,0.03,VWS V14.01,2013-07-02 15:17:00,
2013-07-02 11:22:00,77.1,73.3,30.06,South,179,5.0,12.0,88,0.00,,BKN120,0.03,VWS V14.01,2013-07-02 15:22:00,
2013-07-02 11:27:00,77.0,73.2,30.06,SW,233,6.0,9.0,88,0.00,,BKN120,0.03,VWS V14.01,2013-07-02 15:27:00,
2013-07-02 11:33:00,77.1,73.3,30.07,SSW,198,3.0,7.0,88,0.00,,BKN047,0.03,VWS V14.01,2013-07-02 15:33:00,
2013-07-02 11:38:00,77.3,73.5,30.06,SE,142,6.0,7.0,88,0.00,,BKN047,0.03,VWS V14.01,2013-07-02 15:38:00,
2013-07-02 11:43:00,77.3,73.5,30.07,SSE,153,4.0,10.0,88,0.00,,BKN047,0.03,VWS V14.01,2013-07-02 15:43:00,
2013-07-02 11:48:00,77.4,73.6,30.06,SE,146,1.0,6.0,88,0.00,,BKN047,0.03,VWS V14.01,2013-07-02 15:48:00,
2013-07-02 11:53:00,77.6,73.4,30.06,South,170,2.0,5.0,87,0.00,,BKN047,0.03,VWS V14.01,2013-07-02 15:53:00,
2013-07-02 11:58:00,77.9,74.1,30.07,SE,142,2.0,5.0,88,0.00,,BKN047,0.03,VWS V14.01,2013-07-02 15:58:00,
2013-07-02 12:03:00,78.2,73.7,30.06,South,188,1.0,11.0,86,0.00,,BKN100,0.03,VWS V14.01,2013-07-02 16:03:00,
2013-07-02 12:08:00,79.0,74.5,30.06,SSE,162,0.0,7.0,86,0.00,,BKN100,0.03,VWS V14.01,2013-07-02 16:08:00,
2013-07-02 12:13:00,79.5,74.2,30.06,SSE,158,8.0,8.0,84,0.00,,BKN100,0.03,VWS V14.01,2013-07-02 16:13:00,
2013-07-02 12:18:00,79.4,73.8,30.06,South,191,2.0,10.0,83,0.00,,BKN100,0.03,VWS V14.01,2013-07-02 16:18:00,
2013-07-02 12:23:00,79.6,73.6,30.06,WSW,250,6.0,12.0,82,0.00,,BKN100,0.03,VWS V14.01,2013-07-02 16:23:00,
2013-07-02 12:28:00,79.4,73.4,30.06,WSW,246,6.0,13.0,82,0.00,,BKN100,0.03,VWS V14.01,2013-07-02 16:28:00,
2013-07-02 12:33:00,79.5,73.5,30.06,South,171,2.0,7.0,82,0.00,,BKN100,0.03,VWS V14.01,2013-07-02 16:33:00,
2013-07-02 12:38:00,79.2,73.2,30.06,SW,219,7.0,11.0,82,0.00,,BKN100,0.03,VWS V14.01,2013-07-02 16:38:00,
2013-07-02 12:43:00,79.2,73.6,30.06,SW,226,3.0,6.0,83,0.00,,BKN100,0.03,VWS V14.01,2013-07-02 16:43:00,
2013-07-02 12:48:00,79.5,73.9,30.06,SSW,200,3.0,9.0,83,0.00,,BKN100,0.03,VWS V14.01,2013-07-02 16:48:00,
2013-07-02 12:53:00,79.6,73.6,30.06,South,171,2.0,12.0,82,0.00,,BKN100,0.03,VWS V14.01,2013-07-02 16:53:00,
2013-07-02 12:58:00,79.2,73.2,30.06,WSW,247,3.0,9.0,82,0.00,,BKN100,0.03,VWS V14.01,2013-07-02 16:58:00,
2013-07-02 13:03:00,79.1,73.5,30.06,SSW,197,3.0,8.0,83,0.00,,BKN034,0.03,VWS V14.01,2013-07-02 17:03:00,
2013-07-02 13:08:00,79.2,73.6,30.06,West,269,3.0,6.0,83,0.00,,BKN034,0.03,VWS V14.01,2013-07-02 17:08:00,
2013-07-02 13:13:00,79.6,74.0,30.05,SW,236,2.0,5.0,83,0.00,,BKN034,0.03,VWS V14.01,2013-07-02 17:13:00,
2013-07-02 13:18:00,80.3,73.9,30.05,SW,233,2.0,6.0,81,0.00,,BKN034,0.03,VWS V14.01,2013-07-02 17:18:00,
2013-07-02 13:23:00,80.9,74.5,30.05,South,173,3.0,5.0,81,0.00,,BKN034,0.03,VWS V14.01,2013-07-02 17:23:00,
2013-07-02 13:28:00,80.6,73.5,30.05,SSE,165,6.0,10.0,79,0.00,,BKN034,0.03,VWS V14.01,2013-07-02 17:28:00,
2013-07-02 13:33:00,80.3,73.9,30.05,SSW,198,3.0,7.0,81,0.00,,SCT025,0.03,VWS V14.01,2013-07-02 17:33:00,
2013-07-02 13:38:00,79.9,73.6,30.05,West,262,3.0,7.0,81,0.00,,SCT025,0.03,VWS V14.01,2013-07-02 17:38:00,
2013-07-02 13:43:00,80.0,74.0,30.05,SE,142,3.0,8.0,82,0.00,,SCT025,0.03,VWS V14.01,2013-07-02 17:43:00,
2013-07-02 13:48:00,80.3,74.3,30.05,SE,136,5.0,8.0,82,0.00,,SCT025,0.03,VWS V14.01,2013-07-02 17:48:00,
2013-07-02 13:53:00,80.5,73.8,30.05,SSE,156,1.0,11.0,80,0.00,,SCT025,0.03,VWS V14.01,2013-07-02 17:53:00,
2013-07-02 13:59:00,80.9,74.2,30.05,SE,145,7.0,9.0,80,0.00,,SCT025,0.03,VWS V14.01,2013-07-02 17:59:00,
2013-07-02 14:04:00,81.0,73.9,30.05,SE,127,7.0,11.0,79,0.00,,SCT030,0.03,VWS V14.01,2013-07-02 18:04:00,
2013-07-02 14:09:00,80.8,73.7,30.05,SSE,149,12.0,16.0,79,0.00,,SCT030,0.03,VWS V14.01,2013-07-02 18:09:00,
2013-07-02 14:14:00,80.6,73.5,30.05,South,177,9.0,13.0,79,0.00,,SCT030,0.03,VWS V14.01,2013-07-02 18:14:00,
2013-07-02 14:19:00,80.7,74.3,30.05,SE,139,8.0,11.0,81,0.00,,SCT030,0.03,VWS V14.01,2013-07-02 18:19:00,
2013-07-02 14:24:00,80.4,74.8,30.05,SE,135,10.0,12.0,83,0.00,,SCT030,0.03,VWS V14.01,2013-07-02 18:24:00,
2013-07-02 14:29:00,81.0,75.0,30.05,SE,141,11.0,11.0,82,0.00,,SCT030,0.03,VWS V14.01,2013-07-02 18:29:00,
2013-07-02 14:34:00,81.5,74.7,30.05,South,169,2.0,11.0,80,0.00,,SCT030,0.03,VWS V14.01,2013-07-02 18:34:00,
2013-07-02 14:39:00,82.3,74.8,30.04,SE,146,4.0,12.0,78,0.00,,SCT030,0.03,VWS V14.01,2013-07-02 18:39:00,
2013-07-02 14:44:00,82.3,75.1,30.04,SE,136,8.0,12.0,79,0.00,,SCT030,0.03,VWS V14.01,2013-07-02 18:44:00,
2013-07-02 14:49:00,82.0,74.1,30.05,WSW,256,8.0,11.0,77,0.00,,SCT030,0.03,VWS V14.01,2013-07-02 18:49:00,
2013-07-02 14:54:00,81.8,74.3,30.04,SSE,165,10.0,13.0,78,0.00,,SCT030,0.03,VWS V14.01,2013-07-02 18:54:00,
2013-07-02 14:59:00,81.9,74.0,30.05,SSE,163,5.0,12.0,77,0.00,,SCT030,0.03,VWS V14.01,2013-07-02 18:59:00,
2013-07-02 15:04:00,82.0,73.7,30.05,SW,218,5.0,14.0,76,0.00,,FEW025,0.03,VWS V14.01,2013-07-02 19:04:00,
2013-07-02 15:09:00,82.0,73.7,30.05,SSW,194,4.0,14.0,76,0.00,,FEW025,0.03,VWS V14.01,2013-07-02 19:09:00,
2013-07-02 15:14:00,82.1,74.9,30.05,SE,142,12.0,12.0,79,0.00,,FEW025,0.03,VWS V14.01,2013-07-02 19:14:00,
2013-07-02 15:19:00,81.2,74.8,30.05,SE,142,9.0,16.0,81,0.00,,FEW025,0.03,VWS V14.01,2013-07-02 19:19:00,
2013-07-02 15:24:00,80.9,75.3,30.04,SE,145,7.0,12.0,83,0.00,,FEW025,0.03,VWS V14.01,2013-07-02 19:24:00,
2013-07-02 15:29:00,80.9,74.9,30.04,SE,146,5.0,10.0,82,0.00,,FEW025,0.03,VWS V14.01,2013-07-02 19:29:00,
2013-07-02 15:34:00,81.0,74.2,30.04,SE,146,2.0,11.0,80,0.00,,FEW025,0.03,VWS V14.01,2013-07-02 19:34:00,
2013-07-02 15:40:00,81.4,75.0,30.04,SSE,158,5.0,10.0,81,0.00,,FEW025,0.03,VWS V14.01,2013-07-02 19:40:00,
2013-07-02 15:45:00,81.4,73.9,30.04,SSE,155,3.0,11.0,78,0.00,,FEW025,0.03,VWS V14.01,2013-07-02 19:45:00,
2013-07-02 15:50:00,81.5,74.0,30.04,SSE,149,14.0,14.0,78,0.00,,FEW025,0.03,VWS V14.01,2013-07-02 19:50:00,
2013-07-02 15:55:00,81.4,73.9,30.04,SSE,160,10.0,16.0,78,0.00,,FEW025,0.03,VWS V14.01,2013-07-02 19:55:00,
2013-07-02 16:00:00,81.3,73.8,30.04,WSW,257,7.0,12.0,78,0.00,,FEW025,0.03,VWS V14.01,2013-07-02 20:00:00,
2013-07-02 16:05:00,81.3,73.8,30.04,SSE,160,5.0,9.0,78,0.00,,SCT031,0.03,VWS V14.01,2013-07-02 20:05:00,
2013-07-02 16:10:00,81.1,73.6,30.04,SW,221,4.0,9.0,78,0.00,,SCT031,0.03,VWS V14.01,2013-07-02 20:10:00,
2013-07-02 16:15:00,81.1,74.0,30.04,SSE,167,2.0,8.0,79,0.00,,SCT031,0.03,VWS V14.01,2013-07-02 20:15:00,
2013-07-02 16:20:00,81.0,73.5,30.04,South,176,6.0,14.0,78,0.00,,SCT031,0.03,VWS V14.01,2013-07-02 20:20:00,
2013-07-02 16:25:00,81.1,74.0,30.04,WSW,245,2.0,9.0,79,0.00,,SCT031,0.03,VWS V14.01,2013-07-02 20:25:00,
2013-07-02 16:30:00,81.2,74.1,30.04,SSE,150,2.0,9.0,79,0.00,,SCT031,0.03,VWS V14.01,2013-07-02 20:30:00,
2013-07-02 16:35:00,81.0,73.9,30.04,SE,138,6.0,9.0,79,0.00,,SCT031,0.03,VWS V14.01,2013-07-02 20:35:00,
2013-07-02 16:40:00,81.0,74.2,30.05,South,181,5.0,9.0,80,0.00,,SCT031,0.03,VWS V14.01,2013-07-02 20:40:00,
2013-07-02 16:45:00,81.1,74.7,30.04,SE,142,9.0,12.0,81,0.00,,SCT031,0.03,VWS V14.01,2013-07-02 20:45:00,
2013-07-02 16:50:00,80.8,74.4,30.04,SE,129,6.0,14.0,81,0.00,,SCT031,0.03,VWS V14.01,2013-07-02 20:50:00,
2013-07-02 16:55:00,80.6,74.2,30.05,SE,145,6.0,15.0,81,0.00,,SCT031,0.03,VWS V14.01,2013-07-02 20:55:00,
2013-07-02 17:00:00,80.6,74.6,30.05,SSE,168,8.0,12.0,82,0.00,,SCT031,0.03,VWS V14.01,2013-07-02 21:00:00,
2013-07-02 17:05:00,80.5,74.5,30.05,SE,146,5.0,11.0,82,0.00,,-RA,0.03,VWS V14.01,2013-07-02 21:05:00,
2013-07-02 17:10:00,80.1,74.1,30.05,South,178,7.0,12.0,82,0.00,,-RA,0.03,VWS V14.01,2013-07-02 21:10:00,
2013-07-02 17:15:00,79.9,73.9,30.05,SE,146,7.0,13.0,82,0.00,,-RA,0.03,VWS V14.01,2013-07-02 21:15:00,
2013-07-02 17:20:00,79.8,74.2,30.05,SSE,167,5.0,14.0,83,0.00,,-RA,0.03,VWS V14.01,2013-07-02 21:20:00,
2013-07-02 17:25:00,79.6,74.3,30.05,SSE,165,11.0,17.0,84,0.00,,-RA,0.03,VWS V14.01,2013-07-02 21:25:00,
2013-07-02 17:30:00,79.4,74.5,30.06,SSE,155,7.0,15.0,85,0.00,,-RA,0.03,VWS V14.01,2013-07-02 21:30:00,
2013-07-02 17:35:00,79.3,74.4,30.06,SSE,167,3.0,12.0,85,0.00,,-RA,0.03,VWS V14.01,2013-07-02 21:35:00,
2013-07-02 17:40:00,79.3,74.4,30.06,SSE,162,8.0,16.0,85,0.00,,-RA,0.03,VWS V14.01,2013-07-02 21:40:00,
2013-07-02 17:45:00,79.2,74.3,30.06,SE,139,11.0,14.0,85,0.00,,-RA,0.03,VWS V14.01,2013-07-02 21:45:00,
2013-07-02 17:50:00,79.1,73.5,30.06,SW,231,5.0,16.0,83,0.00,,-RA,0.03,VWS V14.01,2013-07-02 21:50:00,
2013-07-02 17:55:00,79.1,73.5,30.07,WSW,249,5.0,12.0,83,0.00,,-RA,0.03,VWS V14.01,2013-07-02 21:55:00,
2013-07-02 18:00:00,78.9,72.9,30.07,SE,141,6.0,16.0,82,0.00,,-RA,0.03,VWS V14.01,2013-07-02 22:00:00,
2013-07-02 18:05:00,78.8,72.8,30.07,South,180,6.0,13.0,82,0.00,,-RA,0.03,VWS V14.01,2013-07-02 22:05:00,
2013-07-02 18:10:00,78.6,73.0,30.07,SSW,208,7.0,12.0,83,0.00,,-RA,0.03,VWS V14.01,2013-07-02 22:10:00,
2013-07-02 18:15:00,78.3,72.7,30.07,South,191,8.0,8.0,83,0.00,,-RA,0.03,VWS V14.01,2013-07-02 22:15:00,
2013-07-02 18:20:00,78.2,72.6,30.07,West,270,5.0,5.0,83,0.00,,-RA,0.03,VWS V14.01,2013-07-02 22:20:00,
2013-07-02 18:25:00,78.0,72.8,30.07,SSE,166,11.0,12.0,84,0.00,,-RA,0.03,VWS V14.01,2013-07-02 22:25:00,
2013-07-02 18:30:00,77.9,73.4,30.08,South,176,5.0,13.0,86,0.00,,-RA,0.03,VWS V14.01,2013-07-02 22:30:00,
2013-07-02 18:35:00,77.7,73.9,30.08,SSE,159,8.0,11.0,88,0.00,,-RA,0.03,VWS V14.01,2013-07-02 22:35:00,
2013-07-02 18:40:00,77.5,74.0,30.08,SE,145,7.0,10.0,89,0.00,,-RA,0.03,VWS V14.01,2013-07-02 22:40:00,
2013-07-02 18:45:00,77.3,74.1,30.08,South,190,6.0,12.0,90,0.00,,-RA,0.03,VWS V14.01,2013-07-02 22:45:00,
2013-07-02 18:50:00,77.1,74.3,30.08,SE,140,5.0,12.0,91,0.00,,-RA,0.03,VWS V14.01,2013-07-02 22:50:00,
2013-07-02 18:55:00,76.9,74.1,30.08,SSW,200,2.0,10.0,91,0.00,,-RA,0.03,VWS V14.01,2013-07-02 22:55:00,
2013-07-02 19:00:00,76.8,74.0,30.08,South,181,3.0,4.0,91,0.00,,-RA,0.03,VWS V14.01,2013-07-02 23:00:00,
2013-07-02 19:05:00,76.8,74.3,30.08,South,174,8.0,8.0,92,0.00,,BKN100,0.03,VWS V14.01,2013-07-02 23:05:00,
2013-07-02 19:10:00,76.6,73.8,30.09,SSE,155,7.0,12.0,91,0.00,,BKN100,0.03,VWS V14.01,2013-07-02 23:10:00,
2013-07-02 19:15:00,76.6,73.8,30.09,SSE,149,9.0,9.0,91,0.00,,BKN100,0.03,VWS V14.01,2013-07-02 23:15:00,
2013-07-02 19:20:00,76.4,73.6,30.08,SSE,150,9.0,9.0,91,0.00,,BKN100,0.03,VWS V14.01,2013-07-02 23:20:00,
2013-07-02 19:25:00,76.3,73.5,30.09,SSE,158,5.0,5.0,91,0.00,,BKN100,0.03,VWS V14.01,2013-07-02 23:25:00,
2013-07-02 19:31:00,76.3,73.2,30.09,SSE,153,8.0,12.0,90,0.00,,BKN100,0.03,VWS V14.01,2013-07-02 23:31:00,
2013-07-02 19:36:00,76.2,72.7,30.09,South,178,10.0,15.0,89,0.00,,BKN100,0.03,VWS V14.01,2013-07-02 23:36:00,
2013-07-02 19:41:00,76.1,72.6,30.09,SE,137,4.0,11.0,89,0.00,,BKN100,0.03,VWS V14.01,2013-07-02 23:41:00,
2013-07-02 19:46:00,76.0,72.5,30.09,SSE,150,9.0,9.0,89,0.00,,BKN100,0.03,VWS V14.01,2013-07-02 23:46:00,
2013-07-02 19:51:00,75.9,72.4,30.09,SE,132,5.0,10.0,89,0.00,,BKN100,0.03,VWS V14.01,2013-07-02 23:51:00,
2013-07-02 19:56:00,75.8,72.3,30.09,SSE,166,6.0,7.0,89,0.00,,BKN100,0.03,VWS V14.01,2013-07-02 23:56:00,
2013-07-02 20:01:00,75.7,72.2,30.09,SSE,148,5.0,7.0,89,0.00,,BKN100,0.03,VWS V14.01,2013-07-03 00:01:00,
2013-07-02 20:03:00,75.7,72.2,30.09,SE,134,3.0,7.0,89,0.00,,BKN110,0.03,VWS V14.01,2013-07-03 00:03:00,
2013-07-02 20:06:00,75.6,72.1,30.09,SE,142,3.0,6.0,89,0.00,,BKN110,0.03,VWS V14.01,2013-07-03 00:06:00,
2013-07-02 20:11:00,75.5,72.0,30.09,SSE,155,3.0,6.0,89,0.00,,BKN110,0.03,VWS V14.01,2013-07-03 00:11:00,
2013-07-02 20:16:00,75.4,71.6,30.09,SSE,166,5.0,6.0,88,0.00,,BKN110,0.03,VWS V14.01,2013-07-03 00:16:00,
2013-07-02 20:21:00,75.3,71.5,30.09,SE,145,6.0,6.0,88,0.00,,BKN110,0.03,VWS V14.01,2013-07-03 00:21:00,
2013-07-02 20:23:00,75.3,71.5,30.09,SSE,153,3.0,9.0,88,0.00,,BKN110,0.03,VWS V14.01,2013-07-03 00:23:00,
2013-07-02 20:24:00,75.3,71.5,30.09,South,169,3.0,9.0,88,0.00,,BKN110,0.03,VWS V14.01,2013-07-03 00:24:00,
2013-07-02 20:28:00,75.2,71.7,30.09,South,169,8.0,8.0,89,0.00,,BKN110,0.03,VWS V14.01,2013-07-03 00:28:00,
2013-07-02 20:33:00,75.0,71.5,30.09,SSE,149,1.0,8.0,89,0.00,,BKN110,0.03,VWS V14.01,2013-07-03 00:33:00,
2013-07-02 20:35:00,75.0,71.5,30.09,SE,136,3.0,4.0,89,0.00,,BKN110,0.03,VWS V14.01,2013-07-03 00:35:00,
2013-07-02 20:40:00,74.8,71.3,30.09,SE,139,3.0,5.0,89,0.00,,BKN110,0.03,VWS V14.01,2013-07-03 00:40:00,
2013-07-02 20:45:00,74.7,71.6,30.09,NE,52,8.0,11.0,90,0.00,,BKN110,0.03,VWS V14.01,2013-07-03 00:45:00,
2013-07-02 20:50:00,74.7,71.6,30.09,SE,143,0.0,1.0,90,0.00,,BKN110,0.03,VWS V14.01,2013-07-03 00:50:00,
2013-07-02 20:55:00,74.6,71.5,30.10,South,177,3.0,4.0,90,0.00,,BKN110,0.03,VWS V14.01,2013-07-03 00:55:00,
2013-07-02 21:00:00,74.5,71.7,30.10,SSE,148,3.0,3.0,91,0.00,,BKN110,0.03,VWS V14.01,2013-07-03 01:00:00,
2013-07-02 21:05:00,74.3,71.5,30.10,South,178,3.0,3.0,91,0.00,,-RA,0.03,VWS V14.01,2013-07-03 01:05:00,
2013-07-02 21:10:00,74.2,71.7,30.10,SSE,149,3.0,5.0,92,0.00,,-RA,0.03,VWS V14.01,2013-07-03 01:10:00,
2013-07-02 21:11:00,74.2,71.7,30.10,SSE,162,3.0,5.0,92,0.00,,-RA,0.03,VWS V14.01,2013-07-03 01:11:00,
2013-07-02 21:16:00,74.1,71.6,30.10,SSE,155,5.0,7.0,92,0.00,,-RA,0.03,VWS V14.01,2013-07-03 01:16:00,
2013-07-02 21:21:00,74.1,71.6,30.10,SSE,154,8.0,9.0,92,0.00,,-RA,0.03,VWS V14.01,2013-07-03 01:21:00,
2013-07-02 21:26:00,74.0,71.5,30.10,South,169,4.0,10.0,92,0.00,,-RA,0.03,VWS V14.01,2013-07-03 01:26:00,
2013-07-02 21:27:00,74.0,71.5,30.10,South,169,6.0,10.0,92,0.00,,-RA,0.03,VWS V14.01,2013-07-03 01:27:00,
2013-07-02 21:32:00,73.9,71.4,30.10,SSE,158,5.0,6.0,92,0.00,,-RA,0.03,VWS V14.01,2013-07-03 01:32:00,
2013-07-02 21:37:00,73.9,71.4,30.11,SE,142,3.0,8.0,92,0.00,,BKN034,0.03,VWS V14.01,2013-07-03 01:37:00,
2013-07-02 21:42:00,73.8,71.3,30.11,South,187,2.0,7.0,92,0.00,,BKN034,0.03,VWS V14.01,2013-07-03 01:42:00,
2013-07-02 21:47:00,73.8,71.3,30.11,SE,136,9.0,10.0,92,0.00,,BKN034,0.03,VWS V14.01,2013-07-03 01:47:00,
2013-07-02 21:50:00,73.8,71.0,30.11,SSE,150,4.0,6.0,91,0.00,,BKN034,0.03,VWS V14.01,2013-07-03 01:50:00,
2013-07-02 21:51:00,73.8,71.0,30.11,SSE,166,11.0,11.0,91,0.00,,BKN034,0.03,VWS V14.01,2013-07-03 01:51:00,
2013-07-02 21:56:00,73.7,70.9,30.11,SE,134,6.0,8.0,91,0.00,,BKN034,0.03,VWS V14.01,2013-07-03 01:56:00,
2013-07-02 22:01:00,73.6,71.1,30.11,SSW,200,4.0,7.0,92,0.00,,BKN034,0.03,VWS V14.01,2013-07-03 02:01:00,
2013-07-02 22:06:00,73.5,71.0,30.11,SSW,194,3.0,7.0,92,0.00,,BKN040,0.03,VWS V14.01,2013-07-03 02:06:00,
2013-07-02 22:12:00,73.5,71.0,30.11,SSE,160,4.0,8.0,92,0.00,,BKN040,0.03,VWS V14.01,2013-07-03 02:12:00,
2013-07-02 22:17:00,73.5,71.0,30.12,SSE,153,4.0,7.0,92,0.00,,BKN040,0.03,VWS V14.01,2013-07-03 02:17:00,
2013-07-02 22:22:00,73.5,71.0,30.12,SSE,167,0.0,9.0,92,0.00,,BKN040,0.03,VWS V14.01,2013-07-03 02:22:00,
2013-07-02 22:27:00,73.5,71.0,30.12,SW,225,1.0,5.0,92,0.00,,BKN040,0.03,VWS V14.01,2013-07-03 02:27:00,
2013-07-02 22:32:00,73.5,71.0,30.12,SSW,195,1.0,7.0,92,0.00,,BKN040,0.03,VWS V14.01,2013-07-03 02:32:00,
2013-07-02 22:33:00,73.5,71.0,30.11,SSE,148,2.0,7.0,92,0.00,,BKN040,0.03,VWS V14.01,2013-07-03 02:33:00,
2013-07-02 22:39:00,73.5,71.4,30.11,SE,132,5.0,7.0,93,0.00,,BKN040,0.03,VWS V14.01,2013-07-03 02:39:00,
2013-07-02 22:44:00,73.4,71.3,30.12,WSW,239,1.0,6.0,93,0.00,,BKN040,0.03,VWS V14.01,2013-07-03 02:44:00,
2013-07-02 22:47:00,73.4,71.3,30.12,SE,134,5.0,7.0,93,0.00,,BKN040,0.03,VWS V14.01,2013-07-03 02:47:00,
2013-07-02 22:53:00,73.3,71.2,30.11,SSW,194,3.0,6.0,93,0.00,,BKN040,0.03,VWS V14.01,2013-07-03 02:53:00,
2013-07-02 22:58:00,73.3,71.2,30.11,South,188,3.0,6.0,93,0.00,,BKN040,0.03,VWS V14.01,2013-07-03 02:58:00,
2013-07-02 23:02:00,73.3,71.2,30.11,SE,125,7.0,7.0,93,0.00,,BKN040,0.03,VWS V14.01,2013-07-03 03:02:00,
2013-07-02 23:07:00,73.2,71.1,30.11,SSE,149,4.0,7.0,93,0.00,,FEW047,0.03,VWS V14.01,2013-07-03 03:07:00,
2013-07-02 23:12:00,73.1,71.3,30.11,SSE,148,3.0,7.0,94,0.00,,FEW047,0.03,VWS V14.01,2013-07-03 03:12:00,
2013-07-02 23:17:00,73.1,71.3,30.12,SSE,150,4.0,7.0,94,0.00,,FEW047,0.03,VWS V14.01,2013-07-03 03:17:00,
2013-07-02 23:22:00,73.1,71.3,30.12,SSE,162,7.0,11.0,94,0.00,,FEW047,0.03,VWS V14.01,2013-07-03 03:22:00,
2013-07-02 23:27:00,73.1,71.3,30.12,SSE,149,3.0,10.0,94,0.00,,FEW047,0.03,VWS V14.01,2013-07-03 03:27:00,
2013-07-02 23:33:00,73.1,71.3,30.12,SSE,168,4.0,8.0,94,0.00,,FEW047,0.03,VWS V14.01,2013-07-03 03:33:00,
2013-07-02 23:35:00,73.1,71.3,30.12,South,174,7.0,9.0,94,0.00,,FEW047,0.03,VWS V14.01,2013-07-03 03:35:00,
2013-07-02 23:40:00,73.2,71.4,30.12,South,180,6.0,7.0,94,0.00,,FEW047,0.03,VWS V14.01,2013-07-03 03:40:00,
2013-07-02 23:46:00,73.2,71.4,30.12,SSE,160,1.0,9.0,94,0.00,,FEW047,0.03,VWS V14.01,2013-07-03 03:46:00,
2013-07-02 23:49:00,73.2,71.4,30.12,SSE,167,1.0,9.0,94,0.00,,FEW047,0.03,VWS V14.01,2013-07-03 03:49:00,
2013-07-02 23:54:00,73.2,71.4,30.12,SSW,207,1.0,10.0,94,0.00,,FEW047,0.03,VWS V14.01,2013-07-03 03:54:00,
2013-07-02 23:59:00,73.2,71.4,30.12,SE,139,8.0,8.0,94,0.00,,FEW047,0.03,VWS V14.01,2013-07-03 03:59:00,